ADDS METAR Data INFO
IDs: Format: Raw Decoded Include TAF

Data at: 1529 UTC 18 Jun 2018

KSRC 181456Z AUTO VRB05KT 10SM CLR 29/22 A3014 RMK AO2 SLP208 6//// T02890222 51013
KSRC 181356Z AUTO 21005KT 10SM CLR 28/23 A3013 RMK AO2 SLP207 T02780228
KSRC 181256Z AUTO 10SM CLR 26/24 A3012 RMK AO2 SLP203 T02610239
KSRC 181156Z AUTO 10SM CLR 24/24 A3010 RMK AO2 SLP195 6//// 7//// T02390239 10261 20222 51014 $
KSRC 181056Z AUTO 10SM CLR 23/23 A3009 RMK AO2 SLP191 T02280228 $
KSRC 180956Z AUTO 00000KT 10SM CLR 23/23 A3007 RMK AO2 SLP186 T02330233
KSRC 180856Z AUTO 21003KT 10SM CLR 24/23 A3005 RMK AO2 SLP181 T02390233 55002
KSRC 180756Z AUTO 00000KT 10SM CLR 24/23 A3005 RMK AO2 SLP179 T02440233
KSRC 180656Z AUTO 19003KT 10SM CLR 25/23 A3005 RMK AO2 SLP180 T02500233
KSRC 180556Z AUTO 20004KT 10SM CLR 26/23 A3006 RMK AO2 SLP183 T02610233 10328 20256 50002
KSRC 180456Z AUTO 19005KT 10SM CLR 26/23 A3007 RMK AO2 SLP185 T02610233 403440228
KSRC 180356Z AUTO 18004KT 10SM CLR 27/23 A3006 RMK AO2 SLP184 T02670228
KSRC 180256Z AUTO 15006KT 10SM CLR 27/23 A3005 RMK AO2 SLP180 T02720228 53017
KSRC 180156Z AUTO 16006KT 10SM CLR 28/23 A3003 RMK AO2 SLP171 T02830228
KSRC 180056Z AUTO 10SM CLR 31/23 A3001 RMK AO2 SLP166 T03060228 $
KSRC 172356Z AUTO 10SM CLR 33/23 A3000 RMK AO2 SLP163 6//// T03280228 10344 20317 56010 $
KSRC 172156Z AUTO 17008KT 10SM SCT048 34/23 A3002 RMK AO2 SLP170 T03440233
KSRC 172056Z AUTO 21008KT 10SM FEW046 34/23 A3003 RMK AO2 SLP173 T03390233 58010
KSRC 171956Z AUTO 15011G14KT 10SM SCT060 33/23 A3004 RMK AO2 SLP177 T03330233
KSRC 171856Z AUTO 19006KT 10SM BKN038 OVC050 33/24 A3006 RMK AO2 SLP182 T03280244
KSRC 171756Z AUTO VRB06KT 10SM SCT034 32/24 A3006 RMK AO2 SLP183 6//// T03220244 10333 20250 58005
KSRC 171656Z AUTO 21006KT 10SM FEW030 SCT036 31/24 A3007 RMK AO2 SLP185 T03110244
KSRC 171633Z AUTO 19008KT 10SM FEW027 SCT034 32/25 A3007 RMK AO2
KSRC 171556Z AUTO 15006KT 10SM BKN025 BKN034 32/24 A3008 RMK AO2 SLP188 T03170244
KSRC 171456Z AUTO 10SM CLR 30/25 A3008 RMK AO2 SLP188 6//// T03000250 50011
KSRC 171356Z AUTO 10SM CLR 28/25 A3008 RMK AO2 SLP189 T02830250 $
KSRC 171256Z AUTO 10SM CLR 27/25 A3007 RMK AO2 SLP186 T02720250 $
KSRC 171156Z AUTO 10SM CLR 24/24 A3004 RMK AO2 SLP177 6//// 7//// T02440244 10244 20228 51017
KSRC 171056Z AUTO 00000KT 6SM BR CLR 23/23 A3003 RMK AO2 SLP172 T02280228
KSRC 170956Z AUTO 00000KT 6SM BR CLR 23/23 A3001 RMK AO2 SLP166 T02280228
KSRC 170856Z AUTO 25003KT 10SM CLR 24/24 A2999 RMK AO2 SLP159 T02390239 56005
KSRC 170756Z AUTO 00000KT 7SM CLR 23/23 A2999 RMK AO2 SLP160 T02330233
KSRC 170656Z AUTO 00000KT 10SM CLR 24/24 A3000 RMK AO2 SLP163 T02390239
KSRC 170556Z AUTO 00000KT 10SM CLR 24/24 A3001 RMK AO2 SLP164 6//// T02390239 10333 20239 51008
KSRC 170456Z AUTO 00000KT 10SM CLR 24/24 A3000 RMK AO2 SLP163 T02440244 403560217
KSRC 170356Z AUTO 00000KT 10SM CLR 27/24 A3000 RMK AO2 SLP161 T02670244